Time;durP1;ratioP1;P1;durP2;ratioP2;P2;SDS_P1;SDS_P2;PMS_P1;PMS_P2;Temp;Humidity;BMP_temperature;BMP_pressure;BME280_temperature;BME280_humidity;BME280_pressure;Samples;Min_cycle;Max_cycle;Signal;HPM_P1;HPM_P2
2022/11/21 00:01:15;;;;;;;2.00;1.80;;;10.10;65.30;;;;;;5071196;27;20466;-87
2022/11/21 00:03:42;;;;;;;11.67;3.30;;;10.10;65.40;;;;;;5098734;27;20545;-86
2022/11/21 00:06:09;;;;;;;4.33;1.80;;;9.90;66.60;;;;;;5112857;27;20443;-87
2022/11/21 00:08:36;;;;;;;3.00;1.50;;;9.70;67.30;;;;;;5081981;27;20502;-87
2022/11/21 00:11:03;;;;;;;3.80;2.03;;;9.80;67.10;;;;;;5116776;27;20452;-87
2022/11/21 00:13:30;;;;;;;7.90;2.13;;;9.50;67.80;;;;;;5081477;27;20450;-88
2022/11/21 00:16:03;;;;;;;1.60;1.50;;;9.60;67.50;;;;;;5118116;27;20438;-88
2022/11/21 00:18:30;;;;;;;3.43;2.00;;;9.70;67.70;;;;;;5107686;27;20469;-87
2022/11/21 00:20:57;;;;;;;3.93;2.10;;;9.70;66.70;;;;;;5085465;27;20457;-84
2022/11/21 00:23:27;;;;;;;3.17;1.83;;;9.80;66.80;;;;;;5099670;27;20574;-87
2022/11/21 00:25:54;;;;;;;2.60;1.80;;;9.80;66.50;;;;;;5087745;27;20455;-86
2022/11/21 00:28:21;;;;;;;3.37;1.63;;;9.80;66.80;;;;;;5073911;27;20477;-88
2022/11/21 00:30:48;;;;;;;3.87;1.87;;;9.80;66.80;;;;;;5096220;27;20443;-85
2022/11/21 00:33:16;;;;;;;4.03;1.80;;;9.70;66.60;;;;;;5096608;27;20446;-87
2022/11/21 00:35:43;;;;;;;7.90;1.90;;;9.60;67.00;;;;;;5116524;27;20992;-87
2022/11/21 00:38:10;;;;;;;8.43;3.37;;;9.80;66.90;;;;;;5102622;27;20481;-88
2022/11/21 00:40:37;;;;;;;2.20;2.00;;;10.00;65.80;;;;;;5069479;27;20459;-89
2022/11/21 00:43:04;;;;;;;10.53;3.70;;;9.90;66.80;;;;;;5082281;27;20562;-86
2022/11/21 00:45:31;;;;;;;9.40;5.00;;;9.80;66.80;;;;;;5095288;27;20456;-88
2022/11/21 00:47:58;;;;;;;17.47;5.27;;;9.90;66.60;;;;;;5098952;27;21000;-87
2022/11/21 00:50:26;;;;;;;6.80;4.00;;;9.80;66.60;;;;;;5080952;27;20433;-86
2022/11/21 00:52:55;;;;;;;17.77;4.97;;;9.90;66.50;;;;;;5096306;27;21238;-92
2022/11/21 00:55:23;;;;;;;37.13;12.10;;;10.00;65.50;;;;;;5081994;27;20484;-86
2022/11/21 00:57:50;;;;;;;19.33;7.60;;;10.20;64.90;;;;;;5087795;27;20542;-90
2022/11/21 01:00:18;;;;;;;8.80;4.10;;;10.00;64.10;;;;;;5117167;27;20461;-90
2022/11/21 01:02:45;;;;;;;6.33;2.30;;;9.90;65.80;;;;;;5113149;27;20450;-86
2022/11/21 01:05:12;;;;;;;15.23;5.20;;;9.90;66.10;;;;;;5096754;28;20454;-88
2022/11/21 01:07:40;;;;;;;12.97;5.53;;;10.10;64.70;;;;;;5082542;27;20465;-87
2022/11/21 01:10:08;;;;;;;16.50;7.13;;;10.30;63.90;;;;;;5114778;27;20454;-87
2022/11/21 01:12:35;;;;;;;14.03;5.73;;;10.50;63.80;;;;;;5094707;27;20453;-86
2022/11/21 01:15:02;;;;;;;6.00;2.57;;;10.20;62.50;;;;;;5097547;28;20461;-86
2022/11/21 01:17:31;;;;;;;18.40;7.80;;;10.00;64.50;;;;;;5088531;28;21139;-88
2022/11/21 01:19:58;;;;;;;17.33;7.67;;;10.20;63.90;;;;;;5101253;27;21181;-89
2022/11/21 01:22:25;;;;;;;15.83;7.03;;;10.30;63.80;;;;;;5113501;27;20454;-87
2022/11/21 01:24:53;;;;;;;3.60;2.07;;;10.20;62.80;;;;;;5102480;27;21189;-85
2022/11/21 01:27:20;;;;;;;4.07;2.07;;;10.20;63.30;;;;;;5099015;28;20480;-88
2022/11/21 01:29:47;;;;;;;1.40;1.23;;;10.00;63.60;;;;;;5097039;27;20523;-87
2022/11/21 01:32:14;;;;;;;6.20;3.23;;;9.80;65.30;;;;;;5097562;28;20438;-86
2022/11/21 01:34:41;;;;;;;6.40;4.37;;;9.70;65.10;;;;;;5079166;27;20442;-87
2022/11/21 01:37:08;;;;;;;4.20;1.50;;;9.80;65.20;;;;;;5079984;28;20494;-85
2022/11/21 01:39:35;;;;;;;2.27;1.30;;;9.90;64.50;;;;;;5104723;27;20470;-88
2022/11/21 01:42:04;;;;;;;2.70;1.83;;;9.80;65.10;;;;;;5096037;28;20457;-86
2022/11/21 01:44:47;;;;;;;1.67;0.97;;;9.90;64.80;;;;;;5098410;27;20869;-89
2022/11/21 01:47:14;;;;;;;2.47;1.90;;;9.70;64.80;;;;;;5078245;28;20462;-86
2022/11/21 01:49:42;;;;;;;3.00;1.30;;;9.70;65.40;;;;;;5116261;27;21304;-88
2022/11/21 01:52:13;;;;;;;1.00;0.90;;;9.60;65.60;;;;;;5089091;27;21013;-89
2022/11/21 01:54:42;;;;;;;2.10;1.27;;;9.60;65.50;;;;;;5118940;27;20456;-86
2022/11/21 01:57:14;;;;;;;2.00;1.30;;;9.70;65.50;;;;;;5118473;27;21165;-88
2022/11/21 01:59:55;;;;;;;1.40;1.10;;;9.80;65.30;;;;;;5086635;27;20462;-87
2022/11/21 02:02:25;;;;;;;3.73;2.13;;;9.80;65.30;;;;;;5102974;27;20453;-87
2022/11/21 02:04:53;;;;;;;2.10;1.73;;;9.60;65.40;;;;;;5102792;27;21957;-87
2022/11/21 02:07:22;;;;;;;1.87;1.30;;;9.70;65.40;;;;;;5121763;27;20477;-87
2022/11/21 02:09:53;;;;;;;4.20;1.30;;;9.80;65.50;;;;;;5101961;27;20433;-88
2022/11/21 02:12:26;;;;;;;1.77;1.50;;;9.80;65.60;;;;;;5110440;27;20501;-87
2022/11/21 02:14:54;;;;;;;2.33;1.23;;;9.80;65.40;;;;;;5089970;27;20549;-89
2022/11/21 02:17:21;;;;;;;2.10;1.67;;;9.80;65.00;;;;;;5120282;27;20470;-87
2022/11/21 02:19:54;;;;;;;2.73;1.70;;;10.00;63.90;;;;;;5119445;27;20476;-87
2022/11/21 02:22:30;;;;;;;3.20;1.63;;;9.80;65.00;;;;;;5074383;27;20834;-88
2022/11/21 02:25:02;;;;;;;5.43;1.97;;;9.80;65.40;;;;;;5120201;27;20558;-86
2022/11/21 02:27:29;;;;;;;2.07;1.67;;;9.80;65.30;;;;;;5115708;27;20484;-90
2022/11/21 02:29:56;;;;;;;5.03;1.77;;;9.70;65.20;;;;;;5084060;27;20449;-88
2022/11/21 02:32:25;;;;;;;6.27;2.60;;;9.80;65.30;;;;;;5089780;28;20490;-87
2022/11/21 02:34:52;;;;;;;3.97;1.53;;;9.80;65.20;;;;;;5085184;27;20471;-87
2022/11/21 02:37:19;;;;;;;14.73;7.30;;;9.60;65.60;;;;;;5100631;27;20477;-88
2022/11/21 02:39:47;;;;;;;10.57;3.70;;;9.70;66.30;;;;;;5078192;27;20462;-86
2022/11/21 02:42:24;;;;;;;9.40;2.93;;;9.80;65.70;;;;;;5101715;27;20454;-87
2022/11/21 02:44:57;;;;;;;3.53;2.03;;;9.90;65.40;;;;;;5117814;27;20453;-88
2022/11/21 02:47:25;;;;;;;4.93;2.43;;;9.80;65.10;;;;;;5099624;27;20495;-87
2022/11/21 02:50:00;;;;;;;7.13;1.93;;;9.80;65.70;;;;;;5120844;27;20738;-88
2022/11/21 02:52:26;;;;;;;9.73;3.30;;;9.70;64.90;;;;;;5101168;27;20449;-86
2022/11/21 02:54:54;;;;;;;3.53;1.93;;;9.60;65.50;;;;;;5084076;27;20953;-90
2022/11/21 02:57:22;;;;;;;3.20;1.83;;;9.70;66.10;;;;;;5118249;27;20474;-86
2022/11/21 02:59:49;;;;;;;5.13;1.67;;;9.70;64.40;;;;;;5084214;27;20514;-87
2022/11/21 03:02:16;;;;;;;4.13;2.20;;;9.90;64.90;;;;;;5082233;28;20841;-89
2022/11/21 03:04:44;;;;;;;4.43;1.70;;;9.90;64.10;;;;;;5113531;27;20820;-86
2022/11/21 03:07:11;;;;;;;4.40;1.97;;;9.80;64.50;;;;;;5086330;27;20515;-89
2022/11/21 03:09:38;;;;;;;4.03;2.00;;;9.80;64.10;;;;;;5122705;27;20444;-90
2022/11/21 03:12:08;;;;;;;12.57;2.77;;;9.80;64.60;;;;;;5113736;27;20445;-88
2022/11/21 03:14:38;;;;;;;6.73;2.27;;;9.80;64.70;;;;;;5073645;27;20525;-90
2022/11/21 03:17:05;;;;;;;6.40;2.87;;;9.80;63.90;;;;;;5101395;27;20518;-90
2022/11/21 03:19:32;;;;;;;6.60;2.03;;;9.70;64.00;;;;;;5103152;27;21161;-88
2022/11/21 03:21:59;;;;;;;10.30;2.53;;;9.90;64.20;;;;;;5100816;27;20447;-88
2022/11/21 03:24:26;;;;;;;3.73;1.70;;;9.90;62.90;;;;;;5074689;27;20526;-87
2022/11/21 03:26:53;;;;;;;4.10;1.70;;;9.90;63.40;;;;;;5108551;27;20475;-88
2022/11/21 03:29:20;;;;;;;6.73;1.70;;;10.10;61.60;;;;;;5089911;27;20507;-86
2022/11/21 03:31:48;;;;;;;4.83;1.77;;;10.10;62.00;;;;;;5090725;27;20454;-89
2022/11/21 03:34:15;;;;;;;2.00;1.27;;;10.10;61.30;;;;;;5085004;28;20449;-88
2022/11/21 03:36:42;;;;;;;4.53;2.80;;;10.10;62.40;;;;;;5089295;27;20467;-88
2022/11/21 03:39:09;;;;;;;2.70;2.13;;;10.20;61.80;;;;;;5083106;28;20475;-87
2022/11/21 03:41:36;;;;;;;4.03;1.80;;;10.00;62.00;;;;;;5116712;27;20457;-87
2022/11/21 03:44:06;;;;;;;6.37;2.20;;;10.00;62.30;;;;;;5117893;27;20438;-86
2022/11/21 03:46:36;;;;;;;5.57;1.60;;;10.00;61.80;;;;;;5117867;27;20454;-86
2022/11/21 03:49:05;;;;;;;9.63;2.40;;;10.00;62.70;;;;;;5085954;27;20537;-87
2022/11/21 03:51:32;;;;;;;3.60;1.93;;;9.90;63.10;;;;;;5097865;27;20446;-87
2022/11/21 03:53:59;;;;;;;5.23;1.93;;;10.00;62.60;;;;;;5104172;27;20506;-90
2022/11/21 03:56:26;;;;;;;6.93;2.60;;;9.80;63.60;;;;;;5090182;27;21016;-89
2022/11/21 03:58:54;;;;;;;4.73;2.10;;;10.10;63.20;;;;;;5098837;27;20434;-90
2022/11/21 04:01:21;;;;;;;5.53;1.90;;;10.20;62.10;;;;;;5102574;27;20462;-88
2022/11/21 04:03:48;;;;;;;10.60;4.70;;;10.50;61.90;;;;;;5112944;27;20446;-88
2022/11/21 04:06:19;;;;;;;16.70;6.00;;;10.50;61.40;;;;;;5097610;27;20514;-88
2022/11/21 04:08:47;;;;;;;19.00;10.90;;;10.20;61.30;;;;;;5085966;27;20453;-88
2022/11/21 04:11:14;;;;;;;10.00;5.10;;;10.10;62.40;;;;;;5105702;27;20461;-91
2022/11/21 04:13:41;;;;;;;11.03;5.30;;;10.30;61.80;;;;;;5085602;27;20450;-88
2022/11/21 04:16:08;;;;;;;9.13;3.47;;;10.50;61.90;;;;;;5082137;27;20526;-87
2022/11/21 04:18:36;;;;;;;4.80;2.63;;;10.50;61.70;;;;;;5120112;27;20453;-88
2022/11/21 04:21:05;;;;;;;7.83;3.17;;;10.40;62.00;;;;;;5100758;27;20468;-90
2022/11/21 04:23:34;;;;;;;3.93;2.60;;;10.40;61.50;;;;;;5098164;27;21001;-89
2022/11/21 04:26:01;;;;;;;5.43;2.93;;;10.20;61.90;;;;;;5111153;27;20430;-87
2022/11/21 04:28:28;;;;;;;9.30;3.57;;;10.10;60.80;;;;;;5114139;27;20442;-88
2022/11/21 04:30:55;;;;;;;6.10;2.30;;;10.00;61.90;;;;;;5111991;27;20953;-88
2022/11/21 04:33:22;;;;;;;6.83;2.80;;;10.00;61.30;;;;;;5119022;27;20485;-86
2022/11/21 04:35:49;;;;;;;8.47;2.90;;;10.10;61.50;;;;;;5096880;27;20463;-87
2022/11/21 04:38:16;;;;;;;3.13;2.30;;;10.10;61.80;;;;;;5098428;27;20466;-86
2022/11/21 04:40:45;;;;;;;4.10;3.30;;;10.00;61.70;;;;;;5078611;27;21241;-88
2022/11/21 04:43:12;;;;;;;2.80;2.50;;;10.10;61.50;;;;;;5115599;27;20467;-89
2022/11/21 04:45:39;;;;;;;3.30;1.83;;;10.30;61.50;;;;;;5096709;27;20449;-88
2022/11/21 04:48:06;;;;;;;2.50;1.60;;;10.50;60.90;;;;;;5086716;27;20512;-88
2022/11/21 04:50:33;;;;;;;3.30;1.70;;;10.60;60.60;;;;;;5070821;27;20450;-87
2022/11/21 04:53:00;;;;;;;3.60;1.80;;;10.40;59.40;;;;;;5113140;27;20452;-88
2022/11/21 04:55:30;;;;;;;5.17;1.90;;;10.40;60.60;;;;;;5097353;27;20540;-87
2022/11/21 04:57:59;;;;;;;3.30;1.97;;;10.40;60.50;;;;;;5111630;27;20472;-92
2022/11/21 05:00:27;;;;;;;5.27;1.90;;;10.30;61.50;;;;;;5094363;27;20470;-88
2022/11/21 05:02:54;;;;;;;3.13;2.30;;;10.50;60.50;;;;;;5074299;27;20849;-87
2022/11/21 05:05:21;;;;;;;3.60;1.97;;;10.40;60.10;;;;;;5059249;27;20482;-88
2022/11/21 05:07:48;;;;;;;3.63;1.60;;;10.50;60.60;;;;;;5112087;27;20550;-86
2022/11/21 05:10:15;;;;;;;3.20;1.83;;;10.30;60.70;;;;;;5063019;27;20446;-87
2022/11/21 05:15:27;;;;;;;2.57;1.80;;;10.30;60.60;;;;;;5083096;28;20434;-87
2022/11/21 05:17:54;;;;;;;9.03;1.80;;;10.50;60.40;;;;;;5096764;27;20474;-89
2022/11/21 05:20:21;;;;;;;3.00;1.80;;;10.30;61.20;;;;;;5079269;28;20476;-86
2022/11/21 05:22:51;;;;;;;3.90;2.27;;;10.50;60.90;;;;;;5112765;27;20481;-87
2022/11/21 05:25:19;;;;;;;4.30;2.83;;;10.50;60.40;;;;;;5093371;28;20433;-87
2022/11/21 05:27:46;;;;;;;3.60;3.10;;;10.50;61.00;;;;;;5103334;27;20479;-87
2022/11/21 05:30:13;;;;;;;4.83;2.80;;;10.60;60.10;;;;;;5094800;28;20515;-91
2022/11/21 05:32:43;;;;;;;7.17;2.73;;;10.60;60.20;;;;;;5094473;27;20437;-87
2022/11/21 05:35:10;;;;;;;4.03;1.90;;;10.50;60.20;;;;;;5078979;28;20529;-87
2022/11/21 05:37:37;;;;;;;3.47;1.50;;;10.30;60.80;;;;;;5062989;27;20462;-88
2022/11/21 05:40:06;;;;;;;2.20;1.70;;;10.20;60.60;;;;;;5113535;27;20544;-87
2022/11/21 05:45:17;;;;;;;2.60;2.23;;;10.50;60.80;;;;;;5087902;28;20438;-87
2022/11/21 05:47:46;;;;;;;3.70;2.23;;;10.60;60.20;;;;;;5063334;27;20514;-86
2022/11/21 05:50:12;;;;;;;10.70;7.43;;;10.30;61.00;;;;;;5114267;27;20587;-87
2022/11/21 05:52:39;;;;;;;4.60;2.20;;;10.40;61.00;;;;;;5094224;27;20457;-87
2022/11/21 05:55:07;;;;;;;3.43;1.77;;;10.50;60.70;;;;;;5097476;28;20866;-88
2022/11/21 05:57:34;;;;;;;4.90;2.23;;;10.60;60.20;;;;;;5097919;27;20561;-89
2022/11/21 06:00:01;;;;;;;5.53;1.60;;;10.70;59.70;;;;;;5094202;28;20470;-86
2022/11/21 06:05:17;;;;;;;4.27;2.27;;;10.70;60.30;;;;;;5079909;28;20584;-87
2022/11/21 06:07:44;;;;;;;4.87;2.40;;;10.70;60.00;;;;;;5103456;27;21087;-87
2022/11/21 06:10:11;;;;;;;3.63;1.60;;;10.40;60.10;;;;;;5093952;28;20443;-89
2022/11/21 06:12:38;;;;;;;5.30;2.30;;;10.40;60.60;;;;;;5060013;27;20449;-87
2022/11/21 06:15:05;;;;;;;3.37;2.03;;;10.60;60.60;;;;;;5093670;28;20955;-89
2022/11/21 06:17:32;;;;;;;5.13;2.50;;;10.60;59.80;;;;;;5103809;27;20565;-87
2022/11/21 06:19:59;;;;;;;8.10;2.77;;;10.50;60.20;;;;;;5094465;27;20838;-87
2022/11/21 06:22:28;;;;;;;9.00;2.90;;;10.40;60.60;;;;;;5096704;28;21002;-87
2022/11/21 06:24:55;;;;;;;3.77;2.03;;;10.60;60.50;;;;;;5094151;27;20458;-87
2022/11/21 06:27:22;;;;;;;5.10;2.90;;;10.80;60.00;;;;;;5090585;28;20602;-89
2022/11/21 06:29:49;;;;;;;2.67;2.43;;;10.70;59.60;;;;;;5094666;27;20451;-87
2022/11/21 06:32:16;;;;;;;5.40;2.50;;;10.60;60.00;;;;;;5072734;28;20542;-89
2022/11/21 06:34:43;;;;;;;30.17;15.10;;;10.50;60.40;;;;;;5090999;27;20439;-89
2022/11/21 06:37:09;;;;;;;16.23;8.13;;;10.50;60.50;;;;;;5090887;28;20523;-89
2022/11/21 06:39:38;;;;;;;10.77;5.80;;;10.60;60.50;;;;;;5070893;27;20446;-87
2022/11/21 06:42:05;;;;;;;7.07;4.30;;;10.50;60.40;;;;;;5115676;27;20479;-88
2022/11/21 06:44:32;;;;;;;4.90;3.23;;;10.60;60.50;;;;;;5098628;27;20874;-88
2022/11/21 06:46:59;;;;;;;6.37;3.57;;;10.80;60.40;;;;;;5082467;27;20481;-87
2022/11/21 06:49:26;;;;;;;3.90;3.27;;;10.70;60.80;;;;;;5114198;27;20476;-90
2022/11/21 06:51:53;;;;;;;6.83;2.50;;;10.80;61.10;;;;;;5100061;27;20469;-87
2022/11/21 06:54:20;;;;;;;5.27;3.43;;;10.70;61.20;;;;;;5082818;27;20484;-90
2022/11/21 06:56:52;;;;;;;6.10;2.30;;;10.70;61.20;;;;;;5088832;27;20477;-87
2022/11/21 06:59:19;;;;;;;4.90;3.70;;;10.90;61.10;;;;;;5087499;27;20527;-88
2022/11/21 07:01:49;;;;;;;6.57;4.93;;;10.80;60.80;;;;;;5079949;27;20474;-89
2022/11/21 07:04:16;;;;;;;16.27;6.77;;;11.00;60.70;;;;;;5081815;27;20460;-87
2022/11/21 07:06:43;;;;;;;10.83;4.93;;;11.00;60.80;;;;;;5081974;27;20997;-87
2022/11/21 07:09:10;;;;;;;4.40;2.70;;;11.00;60.20;;;;;;5087935;27;20483;-87
2022/11/21 07:11:37;;;;;;;4.77;3.30;;;10.70;60.50;;;;;;5076489;27;20466;-87
2022/11/21 07:14:05;;;;;;;9.80;4.20;;;10.80;60.90;;;;;;5116970;27;20450;-88
2022/11/21 07:16:34;;;;;;;11.60;5.03;;;10.70;60.70;;;;;;5096343;27;20462;-88
2022/11/21 07:19:01;;;;;;;7.70;4.07;;;10.60;61.40;;;;;;5082514;27;20962;-88
2022/11/21 07:21:28;;;;;;;5.00;2.23;;;10.60;61.50;;;;;;5072990;27;20467;-88
2022/11/21 07:23:55;;;;;;;6.30;2.60;;;10.70;61.80;;;;;;5109029;27;20460;-86
2022/11/21 07:26:22;;;;;;;2.70;1.80;;;10.60;61.30;;;;;;5088472;27;20458;-89
2022/11/21 07:28:48;;;;;;;3.60;2.57;;;10.40;61.90;;;;;;5114023;27;20447;-88
2022/11/21 07:31:17;;;;;;;1.80;1.60;;;10.40;62.00;;;;;;5085984;27;20451;-89
2022/11/21 07:33:45;;;;;;;2.10;1.50;;;10.30;62.00;;;;;;5093881;27;20876;-88
2022/11/21 07:36:13;;;;;;;2.07;1.60;;;10.40;62.00;;;;;;5081119;27;20474;-88
2022/11/21 07:38:40;;;;;;;7.33;4.37;;;10.50;60.90;;;;;;5099495;27;20451;-88
2022/11/21 07:41:07;;;;;;;4.40;2.10;;;10.50;61.90;;;;;;5099542;27;20833;-91
2022/11/21 07:43:34;;;;;;;1.60;1.30;;;10.50;61.80;;;;;;5083185;27;20446;-88
2022/11/21 07:46:01;;;;;;;5.13;1.63;;;10.40;61.50;;;;;;5090625;27;20455;-87
2022/11/21 07:48:30;;;;;;;1.93;1.57;;;10.40;61.70;;;;;;5108893;27;20881;-88
2022/11/21 07:50:57;;;;;;;2.60;2.00;;;10.40;61.50;;;;;;5074990;27;20471;-89
2022/11/21 07:53:24;;;;;;;3.87;1.33;;;10.40;62.10;;;;;;5112406;27;20767;-88
2022/11/21 07:55:51;;;;;;;4.37;2.07;;;10.40;61.90;;;;;;5092250;27;20542;-87
2022/11/21 07:58:18;;;;;;;4.17;2.50;;;10.50;61.90;;;;;;5113351;27;20481;-88
2022/11/21 08:00:45;;;;;;;6.77;4.00;;;10.50;61.40;;;;;;5066676;27;20464;-89
2022/11/21 08:03:13;;;;;;;8.80;6.57;;;10.50;61.20;;;;;;5070550;27;20490;-89
2022/11/21 08:05:43;;;;;;;7.70;5.53;;;10.60;61.20;;;;;;5114688;27;20455;-87
2022/11/21 08:08:11;;;;;;;7.53;2.70;;;10.80;61.10;;;;;;5112605;27;21066;-88
2022/11/21 08:10:40;;;;;;;10.00;5.93;;;10.90;60.20;;;;;;5089081;27;20450;-88
2022/11/21 08:13:07;;;;;;;9.03;4.43;;;10.70;59.90;;;;;;5096767;27;20454;-89
2022/11/21 08:15:34;;;;;;;3.20;2.20;;;10.60;60.60;;;;;;5113077;27;20466;-88
2022/11/21 08:18:07;;;;;;;2.50;2.17;;;10.70;60.70;;;;;;5076650;27;20879;-88
2022/11/21 08:20:34;;;;;;;32.23;21.00;;;10.70;60.10;;;;;;5085956;27;20565;-86
2022/11/21 08:23:03;;;;;;;5.30;3.90;;;10.80;60.50;;;;;;5078606;27;20883;-87
2022/11/21 08:25:30;;;;;;;9.43;3.80;;;11.00;60.20;;;;;;5079403;28;20447;-88
2022/11/21 08:27:57;;;;;;;11.90;7.90;;;10.90;59.40;;;;;;5111644;27;20463;-86
2022/11/21 08:30:25;;;;;;;13.00;8.87;;;10.90;59.80;;;;;;5114180;27;20543;-88
2022/11/21 08:32:52;;;;;;;10.30;7.90;;;10.80;60.80;;;;;;5085742;27;20459;-88
2022/11/21 08:35:19;;;;;;;7.07;5.00;;;10.90;59.80;;;;;;5078954;27;20888;-87
2022/11/21 08:37:46;;;;;;;1.90;1.60;;;11.00;59.40;;;;;;5112912;27;20466;-88
2022/11/21 08:40:15;;;;;;;6.50;2.27;;;10.80;60.00;;;;;;5070275;27;20461;-90
2022/11/21 08:42:42;;;;;;;4.80;2.30;;;10.90;59.70;;;;;;5114130;27;20451;-91
2022/11/21 08:45:10;;;;;;;2.33;2.00;;;11.00;59.70;;;;;;5098054;27;20447;-88
2022/11/21 08:47:37;;;;;;;3.03;2.20;;;10.90;59.20;;;;;;5110017;27;20853;-88
2022/11/21 08:50:04;;;;;;;6.33;4.53;;;10.90;59.50;;;;;;5097262;27;20955;-88
2022/11/21 08:52:31;;;;;;;3.83;2.67;;;10.90;59.30;;;;;;5076486;27;20451;-85
2022/11/21 08:54:58;;;;;;;4.70;3.53;;;10.80;59.70;;;;;;5079018;27;20964;-88
2022/11/21 08:57:26;;;;;;;5.33;1.80;;;10.80;59.70;;;;;;5093946;27;20474;-89
2022/11/21 08:59:53;;;;;;;5.23;3.10;;;11.00;59.50;;;;;;5085042;27;20457;-88
2022/11/21 09:02:20;;;;;;;5.83;2.60;;;11.20;59.50;;;;;;5075072;27;20474;-88
2022/11/21 09:04:47;;;;;;;7.43;4.87;;;11.10;58.60;;;;;;5102841;27;20470;-88
2022/11/21 09:07:14;;;;;;;4.00;3.70;;;11.00;59.50;;;;;;5080649;28;20470;-87
2022/11/21 09:09:43;;;;;;;3.00;2.13;;;11.20;59.70;;;;;;5096746;27;20461;-90
2022/11/21 09:12:10;;;;;;;5.17;1.90;;;11.30;59.70;;;;;;5093264;27;20454;-87
2022/11/21 09:20:08;;;;;;;5.30;2.40;;;11.30;59.10;;;;;;5114730;27;20434;-90
2022/11/21 09:22:35;;;;;;;2.20;2.07;;;11.30;59.10;;;;;;5085090;27;20471;-88
2022/11/21 09:25:02;;;;;;;19.60;10.87;;;11.20;59.10;;;;;;5112426;27;20446;-88
2022/11/21 09:27:31;;;;;;;6.60;3.30;;;11.10;59.00;;;;;;5110684;27;20578;-88
2022/11/21 09:29:59;;;;;;;4.70;4.30;;;11.40;58.90;;;;;;5086279;27;20438;-88
2022/11/21 09:32:26;;;;;;;4.43;4.03;;;11.30;58.50;;;;;;5078261;28;20456;-89
2022/11/21 09:34:53;;;;;;;4.50;3.47;;;11.40;59.00;;;;;;5092004;27;20434;-88
2022/11/21 09:37:20;;;;;;;4.63;3.70;;;11.30;59.00;;;;;;5075098;28;20467;-87
2022/11/21 09:39:47;;;;;;;8.23;3.17;;;11.50;58.80;;;;;;5095870;27;20450;-88
2022/11/21 09:42:38;;;;;;;4.80;2.80;;;11.50;58.70;;;;;;5100058;28;20473;-89
2022/11/21 09:45:13;;;;;;;2.40;2.20;;;11.30;58.00;;;;;;5094506;27;20974;-88
2022/11/21 09:47:44;;;;;;;4.27;2.00;;;11.40;59.20;;;;;;5103638;27;21275;-88
2022/11/21 09:50:25;;;;;;;4.63;4.10;;;11.40;58.60;;;;;;5110119;27;20447;-89
2022/11/21 09:52:57;;;;;;;5.40;3.27;;;11.30;58.50;;;;;;5102607;27;20433;-87
2022/11/21 09:55:31;;;;;;;6.00;3.50;;;11.40;58.40;;;;;;5070252;28;20994;-88
2022/11/21 09:58:02;;;;;;;8.33;2.87;;;11.60;59.10;;;;;;5075240;27;20477;-88
2022/11/21 10:00:31;;;;;;;5.00;3.27;;;11.60;58.40;;;;;;5081208;28;20461;-89
2022/11/21 10:03:00;;;;;;;4.27;3.07;;;11.60;57.90;;;;;;5112620;27;21074;-89
2022/11/21 10:05:36;;;;;;;6.90;3.40;;;11.50;58.20;;;;;;5111595;27;20469;-88
2022/11/21 10:08:12;;;;;;;8.90;3.93;;;11.60;58.50;;;;;;5065511;27;20473;-88
2022/11/21 10:10:53;;;;;;;2.80;2.53;;;11.60;58.50;;;;;;5077865;27;20439;-84
2022/11/21 10:13:32;;;;;;;3.53;2.40;;;11.50;58.50;;;;;;5091299;28;20983;-86
2022/11/21 10:16:09;;;;;;;4.47;2.10;;;11.50;58.70;;;;;;5116481;27;20457;-86
2022/11/21 10:19:08;;;;;;;5.27;2.60;;;11.60;58.20;;;;;;5097489;27;20446;-86
2022/11/21 10:21:56;;;;;;;4.50;2.43;;;11.60;58.70;;;;;;5070413;27;20519;-86
2022/11/21 10:24:37;;;;;;;4.87;2.50;;;11.50;58.40;;;;;;5070081;27;20479;-86
2022/11/21 10:27:10;;;;;;;4.97;2.57;;;11.50;59.50;;;;;;5082035;27;20481;-85
2022/11/21 10:29:41;;;;;;;6.70;3.20;;;11.40;58.10;;;;;;5081794;27;21053;-88
2022/11/21 10:32:19;;;;;;;5.53;2.87;;;11.30;58.50;;;;;;5083421;27;20446;-87
2022/11/21 10:34:47;;;;;;;7.37;4.17;;;11.20;58.90;;;;;;5096402;27;20443;-87
2022/11/21 10:37:20;;;;;;;4.67;3.77;;;11.30;59.50;;;;;;5098688;27;20474;-87
2022/11/21 10:39:50;;;;;;;7.20;3.00;;;11.30;59.70;;;;;;5078840;27;20503;-87
2022/11/21 10:42:30;;;;;;;4.50;2.97;;;11.20;59.40;;;;;;5070295;27;20461;-88
2022/11/21 10:45:18;;;;;;;4.07;3.67;;;11.20;59.30;;;;;;5092465;27;20819;-89
2022/11/21 10:47:47;;;;;;;8.90;3.90;;;11.30;60.10;;;;;;5102790;27;20473;-87
2022/11/21 10:50:38;;;;;;;11.87;4.00;;;11.20;59.50;;;;;;5095019;27;20456;-87
2022/11/21 10:56:02;;;;;;;2.87;1.90;;;11.40;59.20;;;;;;5096079;27;20949;-87
2022/11/21 10:58:41;;;;;;;2.23;2.03;;;11.50;58.60;;;;;;5079614;27;20465;-87
2022/11/21 11:01:23;;;;;;;5.83;2.30;;;11.50;58.10;;;;;;5097793;27;20435;-87
2022/11/21 11:04:19;;;;;;;6.83;3.50;;;11.50;56.50;;;;;;5098157;27;21376;-86
2022/11/21 11:06:47;;;;;;;3.10;2.80;;;11.60;56.80;;;;;;5061510;27;20466;-86
2022/11/21 11:09:29;;;;;;;9.10;2.63;;;11.80;57.70;;;;;;5095731;27;20525;-87
2022/11/21 11:12:22;;;;;;;2.30;2.03;;;11.60;56.40;;;;;;5111538;27;20449;-86
2022/11/21 11:14:52;;;;;;;2.27;2.07;;;11.50;56.40;;;;;;5094130;27;20446;-86
2022/11/21 11:17:28;;;;;;;3.33;3.03;;;11.70;55.50;;;;;;5094448;27;20834;-87
2022/11/21 11:20:06;;;;;;;2.20;1.77;;;11.70;55.80;;;;;;5079975;27;20812;-86
2022/11/21 11:22:37;;;;;;;4.50;1.73;;;11.70;55.50;;;;;;5094323;27;20970;-87
2022/11/21 11:25:05;;;;;;;8.53;4.63;;;11.80;55.00;;;;;;5103453;27;20805;-87
2022/11/21 11:27:32;;;;;;;3.70;1.80;;;11.80;54.70;;;;;;5092185;27;21266;-85
2022/11/21 11:30:06;;;;;;;7.37;3.90;;;11.70;54.30;;;;;;5096838;27;20458;-86
2022/11/21 11:32:39;;;;;;;1.70;1.60;;;11.60;54.30;;;;;;5098586;27;20443;-87
2022/11/21 11:35:23;;;;;;;4.67;1.90;;;11.50;54.20;;;;;;5077688;27;20461;-88
2022/11/21 11:37:59;;;;;;;4.93;1.70;;;11.40;54.00;;;;;;5095537;27;20469;-87
2022/11/21 11:40:32;;;;;;;2.23;1.93;;;11.50;54.30;;;;;;5097905;27;20445;-87
2022/11/21 11:49:18;;;;;;;2.63;1.90;;;11.60;54.70;;;;;;5070216;27;21151;-85
2022/11/21 11:51:51;;;;;;;2.57;1.90;;;11.70;54.90;;;;;;5079214;27;20447;-86
2022/11/21 11:54:20;;;;;;;3.20;2.90;;;12.00;54.60;;;;;;5067908;27;20451;-87
2022/11/21 11:56:48;;;;;;;3.50;1.93;;;12.10;54.20;;;;;;5100803;27;20561;-87
2022/11/21 11:59:21;;;;;;;55.27;17.53;;;12.20;53.80;;;;;;5113245;27;21163;-87
2022/11/21 12:01:53;;;;;;;21.53;10.93;;;12.30;54.30;;;;;;5089797;27;20481;-86
2022/11/21 12:04:22;;;;;;;23.20;7.67;;;12.40;53.60;;;;;;5110489;27;20447;-87
2022/11/21 12:06:55;;;;;;;173.37;36.33;;;12.20;53.20;;;;;;5093113;27;20477;-87
2022/11/21 12:09:28;;;;;;;63.70;18.80;;;12.20;53.20;;;;;;5101084;27;20458;-87
2022/11/21 12:12:07;;;;;;;84.83;26.40;;;12.20;53.30;;;;;;5083966;27;20991;-87
2022/11/21 12:17:43;;;;;;;24.47;10.97;;;12.00;52.40;;;;;;5102970;27;20471;-85
2022/11/21 12:20:19;;;;;;;19.00;7.97;;;11.90;52.70;;;;;;5091289;27;20950;-87
2022/11/21 12:22:51;;;;;;;19.50;8.33;;;12.10;52.20;;;;;;5078226;27;20836;-87
2022/11/21 12:25:21;;;;;;;14.77;5.30;;;12.50;52.80;;;;;;5077087;28;20546;-87
2022/11/21 12:27:52;;;;;;;25.57;7.83;;;12.60;51.30;;;;;;5094211;27;20496;-86
2022/11/21 12:30:28;;;;;;;14.53;8.17;;;12.60;49.30;;;;;;5093412;28;20443;-86
2022/11/21 12:33:01;;;;;;;6.97;4.13;;;12.70;50.10;;;;;;5067199;27;20952;-88
2022/11/21 12:35:44;;;;;;;2.90;2.03;;;12.90;51.50;;;;;;5062709;27;20850;-88
2022/11/21 12:38:29;;;;;;;2.97;2.67;;;12.50;49.70;;;;;;5076418;27;20511;-86
2022/11/21 12:42:47;;;;;;;2.53;2.13;;;12.10;51.00;;;;;;5092423;27;20595;-87
2022/11/21 12:44:05;;;;;;;3.40;2.10;;;12.10;51.00;;;;;;5092404;27;20472;-87
2022/11/21 12:46:43;;;;;;;3.90;2.10;;;12.20;51.90;;;;;;5083836;27;20502;-86
2022/11/21 12:55:18;;;;;;;6.23;3.00;;;12.20;51.90;;;;;;5084863;27;20442;-87
2022/11/21 12:58:00;;;;;;;4.03;2.97;;;12.30;51.80;;;;;;5079419;27;20478;-87
2022/11/21 13:00:34;;;;;;;9.50;2.10;;;12.40;51.60;;;;;;5078621;27;20787;-89
2022/11/21 13:03:28;;;;;;;5.07;3.70;;;12.60;50.50;;;;;;5110881;27;20497;-87
2022/11/21 13:05:57;;;;;;;3.03;2.73;;;12.80;50.00;;;;;;5104864;27;20468;-88
2022/11/21 13:08:28;;;;;;;3.73;2.00;;;13.00;49.80;;;;;;5068164;27;20465;-89
2022/11/21 13:13:49;;;;;;;19.20;11.30;;;13.10;48.70;;;;;;5099476;27;20512;-87
2022/11/21 13:16:35;;;;;;;4.40;2.90;;;13.10;48.50;;;;;;5111300;27;20438;-87
2022/11/21 13:19:17;;;;;;;2.27;1.40;;;13.00;48.80;;;;;;5077718;27;22906;-87
2022/11/21 13:21:47;;;;;;;4.00;1.53;;;13.20;50.00;;;;;;5082606;27;20445;-86
2022/11/21 13:24:55;;;;;;;2.10;1.60;;;13.30;49.20;;;;;;5111489;27;20445;-86
2022/11/21 13:27:32;;;;;;;2.00;1.20;;;13.20;49.40;;;;;;5067457;28;20469;-88
2022/11/21 13:30:20;;;;;;;2.50;1.47;;;13.30;50.50;;;;;;5092021;27;21272;-87
2022/11/21 13:32:49;;;;;;;2.00;1.40;;;13.30;50.10;;;;;;5108854;27;20447;-87
2022/11/21 13:36:04;;;;;;;3.67;1.30;;;13.20;50.00;;;;;;5080158;28;20825;-87
2022/11/21 13:38:31;;;;;;;2.23;1.13;;;13.20;49.90;;;;;;5109610;27;20454;-86